Bei Facebook empfehlenBei Twitter postenGoogle plusPinterest

Das Wetter im Erzgebirge am 30.08.2017

Wetter und Klima am 30.08.2017 Holzhau im Erzgebirge (630m ü.NN)
Letzte gemessene Temperatur und Uhrzeit der Messung23:45:00 Uhr18.90 °C
Temperatur (Maximum / Höchstwert) und Uhrzeit der Messung16:30:00 Uhr26.80 °C
Temperatur (Minimum / Tiefstwert) und Uhrzeit der Messung04:45:009.10 °C
Errechneter Absolutwert der Temperaturschwankungen zwischen Tmin und Tmax des Tages17.70 K
Errechnete Tagesmitteltemperatur18.66979 °C
Gesamt - Niederschlag des Tages (in flüssiger Form)0.00 Liter / m²
Luftdruck (Maximum / Höchstwert) und Zeitpunkt der Messung01:00:00 Uhr1014.20 hPa
Luftdruck (Minimum / Tiefstwert) und Zeitpunkt der Messung23:15:00 Uhr1009.20 hPa
Errechneter Absolutwert der Luftdruckschwankungen des Tages5.00 hPa
Höchste gemessene Windgeschwindigkeit und Uhrzeit der Messung18:15:00 Uhr40.32 km/h
Errechnete Windhäufigkeit in Relation zu den Messwerten des Tages13.54167 %
Niedrigste Windkühle (Windchill) und Zeitpunkt der Messung04:45:00 Uhr9.10 °C
Taupunkt (Maximum / Höchstwert) und Uhrzeit der Messung15:15:00 Uhr14.90 °C
Taupunkt (Minimum / Tiefstwert) und Uhrzeit der Messung04:45:007.20 °C
Anzahl der automatisch eingelesenen Messwerte 96

Detaillierte Wetter- und Klima- Messwerte für den 30.08.2017 in Holzhau im Erzgebirge (630m ü.NN)
ZeitTemperaturLuftdruckRel. LuftfeuchteWindWindrichtungWindchillTaupunktNiederschlag l/m²
23:45:0018.90 °C1009.40 hPa59.00 %10.70 °C 
23:30:0018.80 °C1009.30 hPa60.00 %10.90 °C 
23:15:0018.20 °C1009.20 hPa61.00 %10.60 °C 
23:00:0018.20 °C1009.60 hPa60.00 %10.30 °C 
22:45:0018.20 °C1009.80 hPa60.00 %10.30 °C 
22:30:0018.40 °C1009.60 hPa59.00 %10.30 °C 
22:15:0019.10 °C1009.70 hPa57.00 %10.40 °C 
22:00:0019.30 °C1009.60 hPa56.00 %18.00 km/hSO20.30 °C10.30 °C 
21:45:0019.40 °C1009.70 hPa57.00 %15.48 km/hSSO19.40 °C10.70 °C 
21:30:0019.20 °C1009.80 hPa57.00 %10.50 °C 
21:15:0019.10 °C1009.70 hPa59.00 %10.90 °C 
21:00:0019.60 °C1009.70 hPa58.00 %11.10 °C 
20:45:0019.60 °C1009.90 hPa58.00 %11.10 °C 
20:30:0019.80 °C1009.90 hPa58.00 %11.30 °C 
20:15:0020.20 °C1009.70 hPa58.00 %11.70 °C 
20:00:0020.40 °C1009.60 hPa57.00 %11.60 °C 
19:45:0021.00 °C1009.80 hPa56.00 %11.90 °C 
19:30:0021.60 °C1009.60 hPa55.00 %3.96 km/hOSO21.60 °C12.20 °C 
19:15:0021.90 °C1009.60 hPa54.00 %12.20 °C 
19:00:0022.50 °C1009.70 hPa53.00 %12.40 °C 
18:45:0023.10 °C1009.70 hPa53.00 %13.00 °C 
18:30:0023.60 °C1010.00 hPa52.00 %13.20 °C 
18:15:0024.10 °C1010.00 hPa51.00 %40.32 km/hNO25.40 °C13.30 °C 
18:00:0024.50 °C1010.30 hPa50.00 %13.40 °C 
17:45:0024.90 °C1010.50 hPa49.00 %13.50 °C 
17:30:0025.00 °C1010.50 hPa48.00 %13.20 °C 
17:15:0025.60 °C1010.70 hPa46.00 %13.10 °C 
17:00:0026.20 °C1010.90 hPa45.00 %34.92 km/hS28.00 °C13.30 °C 
16:45:0026.60 °C1011.00 hPa46.00 %14.00 °C 
16:30:0026.80 °C1011.10 hPa46.00 %14.20 °C 
16:15:0026.50 °C1011.30 hPa47.00 %14.30 °C 
16:00:0026.40 °C1011.30 hPa48.00 %14.50 °C 
15:45:0026.40 °C1011.50 hPa48.00 %27.36 km/hSSO28.30 °C14.50 °C 
15:30:0026.30 °C1011.70 hPa48.00 %14.40 °C 
15:15:0026.10 °C1011.60 hPa50.00 %14.90 °C 
15:00:0025.80 °C1012.00 hPa50.00 %14.60 °C 
14:45:0025.50 °C1011.90 hPa50.00 %37.44 km/hSW27.10 °C14.30 °C 
14:30:0025.40 °C1012.10 hPa50.00 %20.88 km/hO27.20 °C14.20 °C 
14:15:0025.30 °C1012.10 hPa50.00 %40.32 km/hSW26.90 °C14.10 °C 
14:00:0025.30 °C1012.20 hPa50.00 %14.10 °C 
13:45:0025.50 °C1012.10 hPa50.00 %14.30 °C 
13:30:0025.30 °C1012.10 hPa49.00 %13.80 °C 
13:15:0025.30 °C1012.30 hPa50.00 %14.10 °C 
13:00:0025.10 °C1012.30 hPa51.00 %14.30 °C 
12:45:0024.90 °C1012.30 hPa50.00 %13.80 °C 
12:30:0024.90 °C1012.40 hPa52.00 %14.40 °C 
12:15:0024.80 °C1012.50 hPa52.00 %14.30 °C 
12:00:0024.80 °C1012.50 hPa52.00 %3.96 km/hSSW24.80 °C14.30 °C 
11:45:0024.70 °C1012.70 hPa54.00 %14.80 °C 
11:30:0024.40 °C1012.70 hPa54.00 %14.50 °C 
11:15:0024.10 °C1012.80 hPa55.00 %34.92 km/hSO25.50 °C14.50 °C 
11:00:0023.90 °C1012.70 hPa56.00 %14.60 °C 
10:45:0023.60 °C1012.80 hPa56.00 %14.30 °C 
10:30:0023.30 °C1013.00 hPa58.00 %14.60 °C 
10:15:0022.90 °C1013.00 hPa59.00 %14.50 °C 
10:00:0022.30 °C1012.90 hPa63.00 %14.90 °C 
09:45:0021.30 °C1013.00 hPa65.00 %14.50 °C 
09:30:0020.30 °C1012.80 hPa69.00 %14.40 °C 
09:15:0019.30 °C1012.80 hPa72.00 %14.10 °C 
09:00:0018.30 °C1012.80 hPa74.00 %12.96 km/hNNO18.30 °C13.60 °C 
08:45:0017.10 °C1012.60 hPa78.00 %13.20 °C 
08:30:0016.00 °C1012.60 hPa81.00 %12.70 °C 
08:15:0015.10 °C1012.70 hPa84.00 %12.40 °C 
08:00:0013.90 °C1012.90 hPa86.00 %11.60 °C 
07:45:0012.90 °C1013.00 hPa87.00 %10.80 °C 
07:30:0012.10 °C1012.80 hPa87.00 %10.00 °C 
07:15:0011.60 °C1012.90 hPa87.00 %9.50 °C 
07:00:0011.40 °C1013.00 hPa88.00 %9.50 °C 
06:45:0011.30 °C1013.00 hPa88.00 %9.40 °C 
06:30:0011.10 °C1013.00 hPa88.00 %9.20 °C 
06:15:0011.10 °C1012.90 hPa89.00 %9.40 °C 
06:00:0010.40 °C1012.80 hPa90.00 %8.80 °C 
05:45:0010.10 °C1012.80 hPa90.00 %8.50 °C 
05:30:009.50 °C1012.90 hPa90.00 %7.90 °C 
05:15:009.20 °C1012.80 hPa89.00 %7.50 °C 
05:00:009.20 °C1012.90 hPa89.00 %7.50 °C 
04:45:009.10 °C1013.00 hPa88.00 %7.20 °C 
04:30:009.20 °C1013.10 hPa87.00 %7.20 °C 
04:15:009.30 °C1013.10 hPa87.00 %7.30 °C 
04:00:009.60 °C1013.20 hPa86.00 %7.40 °C 
03:45:009.90 °C1013.20 hPa85.00 %7.50 °C 
03:30:0010.30 °C1013.40 hPa84.00 %7.70 °C 
03:15:0010.70 °C1013.40 hPa83.00 %7.90 °C 
03:00:0011.30 °C1013.30 hPa83.00 %8.50 °C 
02:45:0011.80 °C1013.60 hPa82.00 %8.80 °C 
02:30:0012.10 °C1013.70 hPa81.00 %8.90 °C 
02:15:0012.40 °C1013.90 hPa81.00 %9.20 °C 
02:00:0012.20 °C1013.90 hPa81.00 %9.00 °C 
01:45:0012.30 °C1014.00 hPa82.00 %9.30 °C 
01:30:0012.30 °C1014.10 hPa82.00 %5.04 km/hSO12.30 °C9.30 °C 
01:15:0012.20 °C1014.10 hPa82.00 %9.20 °C 
01:00:0012.40 °C1014.20 hPa81.00 %9.20 °C 
00:45:0012.60 °C1014.10 hPa81.00 %9.40 °C 
00:30:0012.90 °C1014.00 hPa81.00 %9.70 °C 
00:15:0013.00 °C1014.10 hPa81.00 %9.80 °C 
00:00:0012.90 °C1014.00 hPa82.00 %9.90 °C 

Permanenter Link zu dieser Seite: Wetter im Erzgebirge am 30.08.2017
Performance-Info: Die Erstellung der Seite / Statistik(en) / Tabelle(n) erforderte 5 Datenbankserver-Abfrage(n) und dauerte 99 Millisekunden. (Dieser Messwert ist von der Gesamt-Auslastung des Servers abhängig.)
Erzgebirge - Wetter | Erzgebirge - Wetter (Mobilgeräte) | Komplette Klimadatenbank